Time;durP1;ratioP1;P1;durP2;ratioP2;P2;SDS_P1;SDS_P2;PMS_P1;PMS_P2;Temp;Humidity;BMP_temperature;BMP_pressure;BME280_temperature;BME280_humidity;BME280_pressure;Samples;Min_cycle;Max_cycle;Signal;HPM_P1;HPM_P2
2022/12/28 00:01:14;;;;;;;12.40;6.57;;;;;;;5.63;100.00;101235.97;4993484;28;20065;-61
2022/12/28 00:03:39;;;;;;;17.55;6.93;;;;;;;5.61;100.00;101261.19;4993429;28;20496;-60
2022/12/28 00:06:05;;;;;;;15.07;6.85;;;;;;;5.18;100.00;101155.28;4992084;28;20038;-60
2022/12/28 00:08:31;;;;;;;8.77;6.43;;;;;;;5.64;100.00;101227.22;4993926;28;20038;-60
2022/12/28 00:11:01;;;;;;;15.13;6.78;;;;;;;5.73;100.00;101223.69;4993312;28;20034;-61
2022/12/28 00:13:28;;;;;;;14.68;6.57;;;;;;;5.38;100.00;101138.63;4993113;28;20022;-61
2022/12/28 00:15:53;;;;;;;12.73;6.20;;;;;;;5.78;100.00;101201.88;4991769;28;20030;-62
2022/12/28 00:18:19;;;;;;;13.70;7.55;;;;;;;5.84;100.00;101211.44;4993121;28;20482;-59
2022/12/28 00:20:44;;;;;;;11.80;6.40;;;;;;;5.92;100.00;101194.00;4992813;28;20034;-60
2022/12/28 00:23:09;;;;;;;14.55;6.05;;;;;;;5.52;100.00;101096.75;4991725;28;20064;-60
2022/12/28 00:25:35;;;;;;;13.43;7.15;;;;;;;5.67;100.00;101110.56;4993195;28;20058;-60
2022/12/28 00:28:01;;;;;;;15.95;6.75;;;;;;;5.42;100.00;101053.34;4991949;28;20050;-61
2022/12/28 00:30:26;;;;;;;10.88;7.07;;;;;;;6.02;100.00;101153.81;4992956;28;20046;-63
2022/12/28 00:32:51;;;;;;;16.95;7.00;;;;;;;5.67;100.00;101087.06;4992278;28;20113;-60
2022/12/28 00:35:16;;;;;;;12.25;6.75;;;;;;;6.09;100.00;101171.19;4994063;28;20159;-60
2022/12/28 00:37:42;;;;;;;12.90;6.90;;;;;;;5.76;100.00;101096.56;5012754;28;20075;-61
2022/12/28 00:40:08;;;;;;;14.88;8.70;;;;;;;5.74;100.00;101080.03;5012269;28;20032;-60
2022/12/28 00:42:33;;;;;;;13.60;8.07;;;;;;;6.14;100.00;101143.28;4994897;28;20042;-61
2022/12/28 00:44:59;;;;;;;12.70;8.63;;;;;;;6.19;100.00;101124.03;5011864;28;20064;-61
2022/12/28 00:47:24;;;;;;;13.70;7.63;;;;;;;6.15;100.00;101116.25;5012399;28;20034;-60
2022/12/28 00:49:49;;;;;;;16.83;8.35;;;;;;;6.17;100.00;101127.56;5012295;28;20029;-61
2022/12/28 00:52:14;;;;;;;12.00;7.80;;;;;;;5.59;100.00;101036.66;5012222;28;20165;-64
2022/12/28 00:54:40;;;;;;;13.70;8.10;;;;;;;5.75;100.00;101049.56;5012337;28;20088;-63
2022/12/28 00:57:05;;;;;;;12.52;8.07;;;;;;;6.23;100.00;101124.88;5012016;28;20092;-63
2022/12/28 00:59:30;;;;;;;11.95;8.30;;;;;;;5.78;100.00;101047.75;5010655;28;20038;-64
2022/12/28 01:01:56;;;;;;;11.90;8.15;;;;;;;6.31;100.00;101122.19;5011941;28;20096;-62
2022/12/28 01:04:21;;;;;;;16.48;8.75;;;;;;;6.34;100.00;101115.19;5010773;28;20080;-63
2022/12/28 01:06:47;;;;;;;14.25;8.02;;;;;;;5.64;100.00;100968.69;4994465;28;20378;-63
2022/12/28 01:09:12;;;;;;;15.48;7.65;;;;;;;6.49;100.00;101115.00;5011841;28;20115;-64
2022/12/28 01:11:37;;;;;;;10.45;7.50;;;;;;;6.06;100.00;101035.34;5012033;28;20065;-63
2022/12/28 01:14:03;;;;;;;11.63;7.57;;;;;;;6.58;100.00;101088.75;4994732;28;20481;-63
2022/12/28 01:16:30;;;;;;;14.68;7.38;;;;;;;6.24;100.00;101022.06;5011847;28;20431;-65
2022/12/28 01:18:58;;;;;;;11.00;7.32;;;;;;;6.73;100.00;101082.47;4978332;28;20033;-64
2022/12/28 01:21:26;;;;;;;12.70;6.88;;;;;;;6.71;100.00;101060.69;5012111;28;20041;-64
2022/12/28 01:23:54;;;;;;;13.77;6.70;;;;;;;6.80;100.00;101082.34;5012072;28;20068;-63
2022/12/28 01:26:20;;;;;;;9.05;6.85;;;;;;;6.46;100.00;101012.19;5012154;28;20453;-62
2022/12/28 01:28:45;;;;;;;12.05;6.45;;;;;;;6.48;100.00;101000.00;4994541;28;20046;-63
2022/12/28 01:31:13;;;;;;;9.00;6.72;;;;;;;6.79;100.00;101030.06;5011944;28;20177;-63
2022/12/28 01:33:39;;;;;;;7.88;6.45;;;;;;;7.09;100.00;101074.09;5012146;28;20061;-63
2022/12/28 01:36:08;;;;;;;10.18;7.20;;;;;;;7.04;100.00;101073.31;5011878;28;20147;-63
2022/12/28 01:38:35;;;;;;;9.57;5.78;;;;;;;6.53;100.00;100975.50;4994616;28;20496;-62
2022/12/28 01:41:00;;;;;;;9.20;6.78;;;;;;;7.03;100.00;101053.28;5012254;28;20399;-62
2022/12/28 01:43:45;;;;;;;7.32;6.00;;;;;;;7.18;100.00;101060.03;5012449;28;20026;-64
2022/12/28 01:46:16;;;;;;;9.60;6.65;;;;;;;6.70;100.00;100973.50;4994584;28;20029;-63
2022/12/28 01:48:56;;;;;;;9.38;6.68;;;;;;;7.11;100.00;101043.56;5012193;28;20516;-61
2022/12/28 01:51:23;;;;;;;8.73;6.13;;;;;;;6.74;100.00;100971.72;5011756;28;20092;-63
2022/12/28 01:53:50;;;;;;;11.32;6.43;;;;;;;7.17;100.00;101060.91;5011925;28;20065;-64
2022/12/28 01:56:15;;;;;;;7.95;6.43;;;;;;;7.18;100.00;101060.88;4995335;28;20568;-65
2022/12/28 01:58:41;;;;;;;9.68;6.53;;;;;;;7.19;100.00;101051.28;5016162;28;20112;-62
2022/12/28 02:01:07;;;;;;;11.32;6.25;;;;;;;7.14;100.00;101026.94;5015485;28;20034;-63
2022/12/28 02:03:33;;;;;;;8.38;6.35;;;;;;;7.11;100.00;101016.50;5015415;28;20084;-63
2022/12/28 02:06:01;;;;;;;8.73;6.30;;;;;;;7.23;100.00;101050.34;5015455;28;20026;-63
2022/12/28 02:08:40;;;;;;;10.80;6.97;;;;;;;7.27;100.00;101055.50;5015281;28;20494;-63
2022/12/28 02:11:06;;;;;;;11.02;6.47;;;;;;;6.97;100.00;100980.09;4998014;28;20089;-63
2022/12/28 02:13:32;;;;;;;10.82;6.68;;;;;;;7.16;100.00;101012.06;4997725;28;20030;-63
2022/12/28 02:15:57;;;;;;;13.65;6.10;;;;;;;7.34;100.00;101032.72;5015324;28;20539;-64
2022/12/28 02:18:24;;;;;;;8.27;5.93;;;;;;;6.89;100.00;100934.00;4997521;28;20540;-62
2022/12/28 02:21:15;;;;;;;8.95;5.72;;;;;;;6.85;100.00;100916.59;4997695;28;20025;-64
2022/12/28 02:23:49;;;;;;;7.45;5.50;;;;;;;7.44;100.00;101031.69;5015053;28;20079;-63
2022/12/28 02:26:34;;;;;;;8.27;5.63;;;;;;;7.46;100.00;101002.84;5015560;28;20033;-64
2022/12/28 02:29:26;;;;;;;8.57;5.57;;;;;;;7.49;100.00;100990.56;4997618;28;20042;-64
2022/12/28 02:32:19;;;;;;;8.35;5.65;;;;;;;7.18;100.00;100950.09;4968891;28;20129;-64
2022/12/28 02:34:47;;;;;;;8.77;6.35;;;;;;;7.51;100.00;101001.88;5015219;28;20040;-63
2022/12/28 02:37:21;;;;;;;8.10;6.40;;;;;;;7.45;100.00;100977.53;5014851;28;20132;-63
2022/12/28 02:39:51;;;;;;;7.65;5.30;;;;;;;7.55;100.00;101008.78;4997092;28;20113;-62
2022/12/28 02:42:18;;;;;;;8.15;5.90;;;;;;;7.53;100.00;100973.88;4997166;28;20366;-61
2022/12/28 02:50:14;;;;;;;10.18;5.50;;;;;;;7.53;100.00;100970.44;5014555;28;20127;-62
2022/12/28 02:53:03;;;;;;;11.00;5.68;;;;;;;7.64;100.00;100984.19;4996992;28;20420;-62
2022/12/28 02:56:07;;;;;;;8.35;5.40;;;;;;;7.65;100.00;100988.50;5014423;28;20049;-63
2022/12/28 02:59:02;;;;;;;8.00;5.70;;;;;;;7.65;100.00;100988.50;4997304;28;20427;-64
2022/12/28 03:01:58;;;;;;;8.05;5.63;;;;;;;7.69;100.00;100977.97;4996681;28;20393;-64
2022/12/28 03:04:38;;;;;;;6.57;5.65;;;;;;;7.22;100.00;100895.03;5014619;28;20037;-66
2022/12/28 03:10:25;;;;;;;7.55;5.25;;;;;;;7.50;100.00;100936.44;4999436;28;20100;-64
2022/12/28 03:13:41;;;;;;;7.90;5.53;;;;;;;7.59;100.00;100970.31;5013539;28;20064;-66
2022/12/28 03:15:53;;;;;;;6.47;5.85;;;;;;;7.56;100.00;100957.28;4999100;28;20125;-65
2022/12/28 03:32:15;;;;;;;8.82;5.55;;;;;;;7.49;100.00;100922.47;4998974;28;20080;-65
2022/12/28 03:34:41;;;;;;;8.07;5.47;;;;;;;7.33;100.00;100898.31;5013719;28;20038;-66
2022/12/28 03:37:27;;;;;;;6.45;5.70;;;;;;;7.64;100.00;100951.00;5014065;28;20096;-64
2022/12/28 03:39:57;;;;;;;8.57;5.90;;;;;;;7.61;100.00;100966.78;4996648;28;20030;-66
2022/12/28 03:45:21;;;;;;;8.60;5.15;;;;;;;7.27;100.00;100892.31;4998895;28;20470;-66
2022/12/28 03:47:48;;;;;;;7.65;5.00;;;;;;;7.53;100.00;100942.44;5013317;28;20121;-65
2022/12/28 03:50:13;;;;;;;7.70;5.35;;;;;;;7.18;100.00;100882.03;4995597;28;20504;-66
2022/12/28 03:52:39;;;;;;;5.43;4.40;;;;;;;7.57;100.00;100932.78;4995204;28;20065;-65
2022/12/28 03:55:04;;;;;;;10.85;5.80;;;;;;;7.34;100.00;100888.69;5013135;28;20125;-65
2022/12/28 03:57:30;;;;;;;8.25;5.28;;;;;;;7.25;100.00;100855.69;5013040;28;20034;-66
2022/12/28 03:59:55;;;;;;;7.47;4.57;;;;;;;7.71;100.00;100941.25;5012888;28;20037;-64
2022/12/28 04:02:20;;;;;;;8.57;4.93;;;;;;;7.63;100.00;100909.09;5012994;28;20454;-67
2022/12/28 04:04:46;;;;;;;6.10;4.93;;;;;;;7.38;100.00;100857.16;5012782;28;20100;-66
2022/12/28 04:07:11;;;;;;;5.93;4.72;;;;;;;7.55;100.00;100898.78;5013057;28;20034;-65
2022/12/28 04:09:36;;;;;;;8.80;4.80;;;;;;;7.21;100.00;100840.91;5012942;28;20038;-65
2022/12/28 04:12:02;;;;;;;5.13;4.38;;;;;;;7.70;100.00;100906.34;5013218;28;20069;-64
2022/12/28 04:14:27;;;;;;;8.15;4.43;;;;;;;7.73;100.00;100915.91;5012851;28;20481;-66
2022/12/28 04:16:52;;;;;;;10.90;4.68;;;;;;;7.73;100.00;100905.41;5012761;28;20077;-64
2022/12/28 04:19:18;;;;;;;8.15;4.70;;;;;;;7.79;100.00;100921.03;5012192;28;20034;-62
2022/12/28 04:21:43;;;;;;;8.15;4.68;;;;;;;7.69;100.00;100894.13;4995320;28;20045;-66
2022/12/28 04:24:08;;;;;;;7.47;4.63;;;;;;;7.34;100.00;100821.47;5013023;28;20069;-65
2022/12/28 04:26:34;;;;;;;6.18;4.40;;;;;;;7.82;100.00;100921.81;5012615;28;20168;-62
2022/12/28 04:29:00;;;;;;;6.72;4.63;;;;;;;7.80;100.00;100910.50;5012644;28;20087;-62
2022/12/28 04:31:27;;;;;;;7.47;4.85;;;;;;;7.36;100.00;100827.53;5012669;28;20105;-62
2022/12/28 04:33:55;;;;;;;6.45;4.70;;;;;;;7.65;100.00;100866.25;5012696;28;20034;-64
2022/12/28 04:36:20;;;;;;;8.13;5.32;;;;;;;7.81;100.00;100879.91;5012483;28;20139;-63
2022/12/28 04:38:45;;;;;;;6.22;5.30;;;;;;;7.83;100.00;100886.84;5012450;28;20462;-64
2022/12/28 04:41:11;;;;;;;5.78;5.18;;;;;;;7.41;100.00;100810.91;5012808;28;20033;-61
2022/12/28 04:43:37;;;;;;;11.50;4.63;;;;;;;7.32;100.00;100785.75;5012820;28;20037;-66
2022/12/28 04:46:05;;;;;;;11.73;5.03;;;;;;;7.88;100.00;100871.88;5012533;28;20034;-65
2022/12/28 04:48:31;;;;;;;9.15;5.07;;;;;;;7.89;100.00;100893.72;4994919;28;20037;-63
2022/12/28 04:50:57;;;;;;;6.35;4.43;;;;;;;7.90;100.00;100869.25;4994895;28;20421;-64
2022/12/28 04:53:22;;;;;;;5.57;4.13;;;;;;;7.89;100.00;100868.38;5012292;28;20044;-67
2022/12/28 04:55:48;;;;;;;7.47;4.65;;;;;;;7.91;100.00;100869.19;4994681;28;20126;-64
2022/12/28 04:58:13;;;;;;;5.43;3.92;;;;;;;7.55;100.00;100816.72;4994616;28;20034;-64
2022/12/28 05:00:39;;;;;;;5.03;3.90;;;;;;;7.89;100.00;100854.41;5012178;28;20122;-63
2022/12/28 05:03:04;;;;;;;11.20;3.90;;;;;;;7.46;100.00;100778.47;4994835;28;20076;-63
2022/12/28 05:05:30;;;;;;;5.78;3.65;;;;;;;7.49;100.00;100781.03;5012383;28;20423;-62
2022/12/28 05:07:59;;;;;;;10.10;3.50;;;;;;;7.88;100.00;100853.53;4994729;28;20041;-63
2022/12/28 05:10:24;;;;;;;5.85;3.20;;;;;;;7.94;100.00;100858.66;5012353;28;20046;-66
2022/12/28 05:12:50;;;;;;;5.47;3.53;;;;;;;7.93;100.00;100850.84;4994712;28;20475;-63
2022/12/28 05:15:15;;;;;;;4.13;2.92;;;;;;;7.67;100.00;100800.75;5012100;28;20540;-63
2022/12/28 05:17:40;;;;;;;5.43;3.75;;;;;;;8.06;100.00;100859.28;5012200;28;20126;-63
2022/12/28 05:20:06;;;;;;;4.55;3.58;;;;;;;7.53;100.00;100753.88;5011910;28;20042;-65
2022/12/28 05:22:31;;;;;;;3.88;3.47;;;;;;;7.91;100.00;100836.88;5011900;28;20037;-63
2022/12/28 05:24:57;;;;;;;5.50;3.28;;;;;;;8.07;100.00;100867.13;5012231;28;20468;-63
2022/12/28 05:27:22;;;;;;;5.90;3.28;;;;;;;7.32;100.00;100722.91;5012302;28;20037;-65
2022/12/28 05:29:47;;;;;;;4.70;3.33;;;;;;;8.11;100.00;100853.06;5012606;28;20030;-63
2022/12/28 05:32:13;;;;;;;4.03;3.10;;;;;;;8.10;100.00;100842.59;4982122;28;20025;-66
2022/12/28 05:34:38;;;;;;;3.67;3.00;;;;;;;7.73;100.00;100764.81;4998449;28;20105;-70
2022/12/28 05:37:04;;;;;;;4.82;2.90;;;;;;;7.80;100.00;100776.84;4994794;28;20051;-70
2022/12/28 05:39:29;;;;;;;4.90;3.08;;;;;;;8.30;100.00;100853.53;4996714;28;20060;-64
2022/12/28 05:41:58;;;;;;;3.20;2.45;;;;;;;8.15;100.00;100823.25;4996523;28;20354;-70
2022/12/28 05:44:25;;;;;;;3.75;2.67;;;;;;;7.90;100.00;100767.91;4996535;28;20122;-69
2022/12/28 05:46:50;;;;;;;4.38;2.80;;;;;;;8.07;100.00;100777.13;4995099;28;20039;-71
2022/12/28 05:49:15;;;;;;;5.45;2.88;;;;;;;8.39;100.00;100842.84;4994916;28;20045;-70
2022/12/28 05:51:41;;;;;;;3.67;2.83;;;;;;;8.38;100.00;100836.72;4995985;28;20041;-72
2022/12/28 05:54:06;;;;;;;4.18;2.65;;;;;;;8.31;100.00;100816.81;4996259;28;20034;-69
2022/12/28 05:56:32;;;;;;;3.65;2.88;;;;;;;8.47;100.00;100846.13;4994573;28;20038;-68
2022/12/28 05:59:03;;;;;;;5.10;3.08;;;;;;;8.47;100.00;100835.63;4994384;28;20038;-66
2022/12/28 06:01:29;;;;;;;;;;;;;;;8.47;100.00;100828.63;4995343;28;20406;-65
2022/12/28 06:03:57;;;;;;;6.53;2.72;;;;;;;8.17;100.00;100784.72;4994563;28;19914;-68
2022/12/28 06:06:23;;;;;;;5.93;3.40;;;;;;;8.43;100.00;100841.88;4995651;28;20058;-67
2022/12/28 06:08:48;;;;;;;6.90;3.65;;;;;;;8.44;100.00;100825.22;4978560;28;20030;-67
2022/12/28 06:11:16;;;;;;;4.60;3.47;;;;;;;8.04;100.00;100748.38;4994726;28;20035;-68
2022/12/28 06:13:42;;;;;;;7.15;3.97;;;;;;;8.04;100.00;100754.47;4995838;28;20053;-67
2022/12/28 06:16:12;;;;;;;4.65;3.38;;;;;;;8.30;100.00;100803.72;4995472;28;20042;-66
2022/12/28 06:18:38;;;;;;;4.05;3.28;;;;;;;7.98;100.00;100754.63;4995129;28;20040;-69
2022/12/28 06:21:10;;;;;;;4.10;3.70;;;;;;;7.94;100.00;100739.84;4993851;28;20110;-67
2022/12/28 06:23:35;;;;;;;5.53;3.33;;;;;;;8.38;100.00;100818.38;4993460;28;20560;-70
2022/12/28 06:26:02;;;;;;;7.18;3.33;;;;;;;8.42;100.00;100812.16;4995074;28;20113;-69
2022/12/28 06:28:27;;;;;;;4.60;3.78;;;;;;;8.42;100.00;100840.16;4994165;28;20382;-68
2022/12/28 06:31:04;;;;;;;6.53;3.60;;;;;;;7.86;100.00;100719.06;4993910;28;20041;-69
2022/12/28 06:33:29;;;;;;;4.93;3.65;;;;;;;7.88;100.00;100719.88;4995687;28;20030;-68
2022/12/28 06:35:54;;;;;;;7.45;4.22;;;;;;;8.42;100.00;100820.03;4998116;28;20088;-68
2022/12/28 06:38:20;;;;;;;8.05;4.80;;;;;;;7.99;100.00;100740.63;4997380;28;20487;-67
2022/12/28 06:40:45;;;;;;;4.47;3.78;;;;;;;7.97;100.00;100737.16;4997459;28;20462;-68
2022/12/28 06:43:10;;;;;;;6.93;4.47;;;;;;;8.40;100.00;100820.97;4980024;28;20037;-69
2022/12/28 06:45:36;;;;;;;6.93;4.47;;;;;;;8.37;100.00;100806.16;5014855;28;20092;-65
2022/12/28 06:48:01;;;;;;;6.53;4.68;;;;;;;8.31;100.00;100798.44;4997091;28;20037;-67
2022/12/28 06:50:26;;;;;;;4.32;3.90;;;;;;;8.40;100.00;100808.72;4997127;28;20042;-68
2022/12/28 06:52:52;;;;;;;8.43;4.97;;;;;;;8.37;100.00;100798.31;4997117;28;20419;-65
2022/12/28 06:55:17;;;;;;;6.18;4.78;;;;;;;8.25;100.00;100767.09;5014566;28;20195;-64
2022/12/28 06:57:42;;;;;;;6.72;4.88;;;;;;;8.40;100.00;100808.72;5013394;28;20084;-64
2022/12/28 07:00:08;;;;;;;7.18;4.97;;;;;;;8.41;100.00;100820.91;4996408;28;20045;-65
2022/12/28 07:02:34;;;;;;;4.63;4.22;;;;;;;7.97;100.00;100729.28;4996450;28;20507;-64
2022/12/28 07:04:59;;;;;;;5.30;4.80;;;;;;;8.47;100.00;100809.41;5014397;28;20069;-70
2022/12/28 07:07:24;;;;;;;8.35;4.47;;;;;;;8.11;100.00;100740.34;4997021;28;20413;-66
2022/12/28 07:09:50;;;;;;;7.63;4.43;;;;;;;8.46;100.00;100800.66;5014084;28;20389;-69
2022/12/28 07:12:15;;;;;;;6.70;4.13;;;;;;;8.37;100.00;100774.69;5014144;28;20485;-66
2022/12/28 07:14:40;;;;;;;6.07;4.40;;;;;;;8.47;100.00;100789.28;4980417;28;20548;-66
2022/12/28 07:17:06;;;;;;;6.38;4.30;;;;;;;8.22;100.00;100745.31;5013450;28;20048;-65
2022/12/28 07:19:31;;;;;;;6.15;3.58;;;;;;;8.51;100.00;100800.56;5014155;28;20030;-66
2022/12/28 07:21:56;;;;;;;7.22;3.90;;;;;;;8.17;100.00;100737.53;5013784;28;20050;-68
2022/12/28 07:24:22;;;;;;;7.75;3.92;;;;;;;7.44;100.00;100614.44;5013939;28;20045;-66
2022/12/28 07:26:47;;;;;;;6.00;3.92;;;;;;;8.48;100.00;100806.75;5013584;28;20040;-67
2022/12/28 07:29:12;;;;;;;5.63;3.40;;;;;;;8.16;100.00;100751.56;5013918;28;20065;-67
2022/12/28 07:31:39;;;;;;;6.90;3.78;;;;;;;8.35;100.00;100762.50;5013771;28;20045;-69
2022/12/28 07:34:05;;;;;;;6.50;3.53;;;;;;;8.51;100.00;100800.56;5013801;28;20128;-66
2022/12/28 07:36:31;;;;;;;7.22;3.90;;;;;;;8.54;100.00;100782.13;4979563;28;20141;-67
2022/12/28 07:38:57;;;;;;;6.25;3.80;;;;;;;8.60;100.00;100804.72;5013571;28;20183;-66
2022/12/28 07:41:27;;;;;;;7.25;3.17;;;;;;;8.41;100.00;100767.59;5013643;28;20041;-68
2022/12/28 07:43:53;;;;;;;6.00;3.40;;;;;;;8.23;100.00;100732.16;4995912;28;20401;-69
2022/12/28 07:46:19;;;;;;;4.32;3.15;;;;;;;8.65;100.00;100805.47;4995962;28;20038;-64
2022/12/28 07:48:45;;;;;;;6.65;3.50;;;;;;;8.70;100.00;100791.34;5013397;28;20033;-66
2022/12/28 07:51:13;;;;;;;6.38;3.42;;;;;;;8.36;100.00;100733.63;4996155;28;20037;-69
2022/12/28 07:53:39;;;;;;;6.97;3.67;;;;;;;8.62;100.00;100776.69;4994903;28;20026;-66
2022/12/28 07:56:05;;;;;;;5.18;3.70;;;;;;;8.75;100.00;100801.72;4979439;28;20026;-64
2022/12/28 07:58:31;;;;;;;7.88;4.13;;;;;;;8.29;100.00;100715.47;5013062;28;20045;-67
2022/12/28 08:01:08;;;;;;;6.53;4.15;;;;;;;8.76;100.00;100795.56;5012934;28;20395;-66
2022/12/28 08:03:33;;;;;;;5.93;4.13;;;;;;;8.71;100.00;100786.94;5013050;28;20026;-66
2022/12/28 08:06:13;;;;;;;5.45;4.50;;;;;;;8.41;100.00;100729.13;5013130;28;20132;-69
2022/12/28 08:08:41;;;;;;;6.68;5.18;;;;;;;8.76;100.00;100799.06;5012905;28;20124;-67
2022/12/28 08:11:09;;;;;;;5.78;5.20;;;;;;;8.16;100.00;100685.16;4995045;28;20057;-66
2022/12/28 08:13:36;;;;;;;5.72;5.22;;;;;;;8.79;100.00;100795.47;4979245;28;20372;-68
2022/12/28 08:16:01;;;;;;;6.15;5.40;;;;;;;8.80;100.00;100792.84;4995311;28;20053;-68
2022/12/28 08:18:27;;;;;;;6.53;5.32;;;;;;;8.84;100.00;100793.63;5012944;28;20543;-68
2022/12/28 08:20:53;;;;;;;6.65;5.88;;;;;;;8.88;100.00;100800.50;5012491;28;20053;-67
2022/12/28 08:23:19;;;;;;;8.75;6.40;;;;;;;8.88;100.00;100800.50;5013269;28;20443;-66
2022/12/28 08:25:44;;;;;;;8.15;7.20;;;;;;;8.89;100.00;100797.00;4995316;28;20392;-66
2022/12/28 08:28:10;;;;;;;9.57;6.97;;;;;;;8.49;100.00;100723.69;5012936;28;20392;-70
2022/12/28 08:30:35;;;;;;;9.75;8.20;;;;;;;8.48;100.00;100706.22;4994709;28;20404;-67
2022/12/28 08:33:00;;;;;;;9.15;8.18;;;;;;;8.45;100.00;100694.06;5012844;28;20062;-66
2022/12/28 08:35:26;;;;;;;8.98;8.10;;;;;;;8.93;100.00;100793.38;5012650;28;20053;-69
2022/12/28 08:37:54;;;;;;;9.13;8.32;;;;;;;8.91;100.00;100785.53;5012424;28;20058;-66
2022/12/28 08:40:21;;;;;;;10.00;8.95;;;;;;;8.58;100.00;100723.41;5012626;28;20123;-69
2022/12/28 08:42:46;;;;;;;10.38;7.97;;;;;;;8.81;100.00;100767.47;4995431;28;20584;-67
2022/12/28 08:45:12;;;;;;;9.27;8.50;;;;;;;9.00;100.00;100789.69;4995422;28;20104;-68
2022/12/28 08:47:37;;;;;;;9.10;8.18;;;;;;;8.97;100.00;100793.25;5012512;28;20045;-65
2022/12/28 08:50:03;;;;;;;13.65;8.60;;;;;;;8.62;100.00;100729.47;5012344;28;20045;-69
2022/12/28 08:52:28;;;;;;;8.73;7.88;;;;;;;8.96;100.00;100785.44;5012277;28;20034;-67
2022/12/28 08:54:53;;;;;;;8.85;7.95;;;;;;;8.65;100.00;100725.00;5011848;28;20141;-67
2022/12/28 08:57:19;;;;;;;8.10;6.40;;;;;;;9.04;100.00;100775.59;5012476;28;20096;-65
2022/12/28 08:59:44;;;;;;;8.18;6.57;;;;;;;8.63;100.00;100704.97;5012409;28;20044;-64
2022/12/28 09:02:12;;;;;;;6.72;5.47;;;;;;;8.40;100.00;100667.09;5012172;28;20034;-71
2022/12/28 09:04:37;;;;;;;7.10;5.07;;;;;;;9.04;100.00;100779.06;4994379;28;20113;-67
2022/12/28 09:07:02;;;;;;;5.88;5.38;;;;;;;8.74;100.00;100756.25;5012157;28;20125;-65
2022/12/28 09:09:28;;;;;;;7.78;5.68;;;;;;;8.78;100.00;100746.53;5012095;28;20425;-68
2022/12/28 09:11:53;;;;;;;5.80;5.20;;;;;;;8.94;100.00;100784.59;5012056;28;20033;-65
2022/12/28 09:14:18;;;;;;;6.10;5.35;;;;;;;8.95;100.00;100767.94;5012172;28;20077;-65
2022/12/28 09:16:44;;;;;;;5.75;5.18;;;;;;;8.53;100.00;100687.72;4994732;28;20042;-66
2022/12/28 09:19:12;;;;;;;6.88;5.88;;;;;;;8.90;100.00;100754.09;5012241;28;20038;-65
2022/12/28 09:21:37;;;;;;;6.47;5.82;;;;;;;8.89;100.00;100770.75;4978318;28;20040;-68
2022/12/28 09:24:03;;;;;;;6.32;5.72;;;;;;;8.68;100.00;100735.41;5011825;28;20109;-64
2022/12/28 09:26:31;;;;;;;6.00;5.35;;;;;;;8.99;100.00;100769.56;5012275;28;20129;-67
2022/12/28 09:28:58;;;;;;;9.35;5.03;;;;;;;9.00;100.00;100769.53;4994767;28;20085;-64
2022/12/28 09:31:26;;;;;;;6.03;5.18;;;;;;;8.61;100.00;100688.41;4994574;28;20029;-69
2022/12/28 09:34:00;;;;;;;7.30;5.68;;;;;;;9.03;100.00;100765.97;4977986;28;20033;-69
2022/12/28 09:36:36;;;;;;;6.70;6.10;;;;;;;9.02;100.00;100778.22;5011552;28;20579;-65
2022/12/28 09:39:04;;;;;;;7.20;6.32;;;;;;;8.64;100.00;100718.03;4978382;28;20073;-64
2022/12/28 09:41:31;;;;;;;8.27;6.50;;;;;;;9.01;100.00;100776.53;4994456;28;20052;-66
2022/12/28 09:44:29;;;;;;;7.47;5.15;;;;;;;8.96;100.00;100735.56;4994230;28;20164;-65
2022/12/28 09:47:16;;;;;;;7.57;4.55;;;;;;;9.16;100.00;100780.50;4994243;28;20022;-67
2022/12/28 09:49:46;;;;;;;6.65;4.45;;;;;;;9.15;100.00;100757.75;5011851;28;20030;-63
2022/12/28 09:52:25;;;;;;;7.18;4.20;;;;;;;9.25;100.00;100789.91;4994258;28;20030;-61
2022/12/28 09:54:50;;;;;;;11.00;3.95;;;;;;;8.85;100.00;100700.84;4994223;28;20065;-62
2022/12/28 09:57:17;;;;;;;6.03;4.00;;;;;;;8.86;100.00;100703.44;5011587;28;20072;-63
2022/12/28 09:59:44;;;;;;;7.43;3.63;;;;;;;9.26;100.00;100776.69;4994085;28;20030;-62
2022/12/28 10:02:25;;;;;;;7.70;3.83;;;;;;;9.30;100.00;100775.72;4993878;28;20107;-62
2022/12/28 10:04:51;;;;;;;;;;;;;;;9.34;100.00;100782.59;5012058;28;20026;-61
2022/12/28 10:07:16;;;;;;;7.05;3.67;;;;;;;9.35;100.00;100775.56;4994004;28;19916;-63
2022/12/28 10:09:42;;;;;;;6.10;3.30;;;;;;;8.97;100.00;100705.75;5011166;28;20037;-62
2022/12/28 10:12:19;;;;;;;10.20;3.88;;;;;;;8.91;100.00;100698.03;5011631;28;20049;-63
2022/12/28 10:14:45;;;;;;;8.13;3.88;;;;;;;9.41;100.00;100762.28;5011153;28;20069;-62
2022/12/28 10:17:13;;;;;;;4.90;3.88;;;;;;;9.29;100.00;100760.84;5012042;28;20045;-62
2022/12/28 10:19:39;;;;;;;6.55;3.83;;;;;;;8.90;100.00;100699.81;5014353;28;20037;-62
2022/12/28 10:22:10;;;;;;;9.27;4.00;;;;;;;8.80;100.00;100685.22;4996297;28;20033;-62
2022/12/28 10:24:38;;;;;;;8.30;4.15;;;;;;;9.22;100.00;100772.47;5014095;28;20215;-63
2022/12/28 10:27:05;;;;;;;9.02;4.25;;;;;;;8.96;100.00;100725.88;5014841;28;20042;-62
2022/12/28 10:29:32;;;;;;;6.45;3.95;;;;;;;8.71;100.00;100698.59;5014724;28;20029;-62
2022/12/28 10:32:08;;;;;;;7.95;4.07;;;;;;;8.74;100.00;100711.63;5014661;28;20037;-64
2022/12/28 10:34:34;;;;;;;6.30;4.85;;;;;;;9.07;100.00;100767.63;5014481;28;20439;-63
2022/12/28 10:37:18;;;;;;;4.25;3.75;;;;;;;9.01;100.00;100762.53;4996726;28;20140;-60
2022/12/28 10:39:49;;;;;;;6.15;4.32;;;;;;;8.65;100.00;100700.53;4997041;28;20037;-62
2022/12/28 10:42:25;;;;;;;6.78;3.97;;;;;;;8.60;100.00;100703.28;5013673;28;20440;-62
2022/12/28 10:44:50;;;;;;;6.63;4.00;;;;;;;8.76;100.00;100736.06;4996025;28;20363;-63
2022/12/28 10:47:26;;;;;;;6.85;4.70;;;;;;;8.68;100.00;100722.28;4996343;28;20037;-64
2022/12/28 10:49:51;;;;;;;5.95;4.15;;;;;;;8.65;100.00;100717.13;4996876;28;20535;-64
2022/12/28 10:52:18;;;;;;;7.43;4.13;;;;;;;8.84;100.00;100751.63;5013464;28;20038;-62
2022/12/28 10:54:44;;;;;;;6.22;4.00;;;;;;;8.83;100.00;100731.53;4995235;28;20080;-63
2022/12/28 10:57:24;;;;;;;5.45;4.60;;;;;;;8.81;100.00;100747.34;4979301;28;20401;-63
2022/12/28 10:59:50;;;;;;;11.98;4.63;;;;;;;8.79;100.00;100727.25;5013378;28;20508;-62
2022/12/28 11:02:29;;;;;;;7.80;3.90;;;;;;;8.41;100.00;100657.44;5012891;28;20026;-62
2022/12/28 11:05:00;;;;;;;6.50;4.22;;;;;;;8.45;100.00;100678.31;4996331;28;20481;-62
2022/12/28 11:07:27;;;;;;;8.75;4.60;;;;;;;8.63;100.00;100703.19;5013202;28;20022;-62
2022/12/28 11:09:52;;;;;;;8.13;4.13;;;;;;;8.71;100.00;100714.34;5012285;28;20029;-62
2022/12/28 11:12:23;;;;;;;5.68;3.97;;;;;;;8.71;100.00;100702.97;5004619;28;20026;-63
2022/12/28 11:14:48;;;;;;;6.32;3.42;;;;;;;8.67;100.00;100717.94;4973049;28;20125;-63
2022/12/28 11:17:15;;;;;;;5.15;3.45;;;;;;;8.66;100.00;100707.50;4992639;28;20097;-62
2022/12/28 11:19:41;;;;;;;7.00;4.05;;;;;;;8.63;100.00;100702.34;5012746;28;20386;-63
2022/12/28 11:22:09;;;;;;;8.90;3.90;;;;;;;8.00;100.00;100587.69;4994919;28;20036;-60
2022/12/28 11:24:34;;;;;;;5.53;3.47;;;;;;;8.24;100.00;100633.38;4995689;28;20477;-62
2022/12/28 11:27:02;;;;;;;5.95;3.38;;;;;;;7.62;100.00;100528.41;4979019;28;20061;-61
2022/12/28 11:29:27;;;;;;;6.35;4.28;;;;;;;8.10;100.00;100604.91;4997025;28;20034;-62
2022/12/28 11:32:00;;;;;;;6.05;3.42;;;;;;;8.10;100.00;100614.53;5018335;28;20040;-60
2022/12/28 11:34:27;;;;;;;8.23;3.47;;;;;;;8.53;100.00;100677.22;5022757;28;20558;-62
2022/12/28 11:36:52;;;;;;;5.00;2.88;;;;;;;8.52;100.00;100680.78;5008945;28;20061;-61
2022/12/28 11:39:24;;;;;;;4.45;2.95;;;;;;;8.55;100.00;100701.69;4998904;28;20117;-62
2022/12/28 11:41:51;;;;;;;5.72;3.13;;;;;;;8.39;100.00;100670.59;5009669;28;20030;-62
2022/12/28 11:44:41;;;;;;;12.43;3.72;;;;;;;8.03;100.00;100605.94;5020568;28;20041;-61
2022/12/28 11:47:15;;;;;;;5.80;3.35;;;;;;;8.54;100.00;100699.94;4998905;28;20049;-61
2022/12/28 11:49:44;;;;;;;9.65;4.13;;;;;;;8.26;100.00;100640.31;5001268;28;20075;-61
2022/12/28 11:52:16;;;;;;;7.38;4.00;;;;;;;8.51;100.00;100677.28;5006910;28;20034;-60
2022/12/28 11:54:53;;;;;;;9.75;3.75;;;;;;;8.23;100.00;100623.81;5025147;28;20057;-61